Rankings de siempre
Mejores tiempos personales válidos de equipo a través de todos los eventos y temporadas. Cada equipo aparece una vez por división.
Busca por nombre y abre la página donde está clasificado este récord de división.
137,494 equipos clasificados
| Pos. | Pos. AG | Equipo | Nacionalidad | Categoría de edad | TiempoMejor tiempo | Diferencia |
|---|---|---|---|---|---|---|
| 133276 | #3098 | Theresa Brereton & Grace EncarnacionCAN · W 50-54 · AG #3098 | CAN | W 50-54 | 2:01:05 | +67:44 |
| 133277 | -- | Maritza Gonzalez & Judith GonzalezUSA · W WU29 | USA | W WU29 | 2:01:05 | +67:44 |
| 133278 | #19744 | Jabu Ndamase & Boitumelo KomaneRSA · W 25-29 · AG #19744 | RSA | W 25-29 | 2:01:06 | +67:45 |
| 133279 | #42162 | Caitlin Murray & LAUREN DOCHERTYGBR · W 30-34 · AG #42162 | GBR | W 30-34 | 2:01:06 | +67:45 |
| 133280 | #42163 | Vicky Huang & Sharon HuangTPE · W 30-34 · AG #42163 | TPE | W 30-34 | 2:01:06 | +67:45 |
| 133281 | #14571 | Kerry Taylor & Diane StewartGBR · W 35-39 · AG #14571 | GBR | W 35-39 | 2:01:06 | +67:45 |
| 133282 | #18988 | Andrea Dewar & Heather McIntoshGBR · W 40-44 · AG #18988 | GBR | W 40-44 | 2:01:06 | +67:45 |
| 133283 | #42164 | Joana Berenice Castillo Lino & M Lucía Rodríguez MartínezMEX · W 30-34 · AG #42164 | MEX | W 30-34 | 2:01:06 | +67:45 |
| 133284 | #14572 | Nicha Siwanuwatn & Nadrada SricheewachartTHA · W 35-39 · AG #14572 | THA | W 35-39 | 2:01:06 | +67:45 |
| 133285 | #42165 | Pei mun Yip & Shu ling NgSIN · W 30-34 · AG #42165 | SIN | W 30-34 | 2:01:06 | +67:45 |
| 133286 | #19745 | Samantha Da Riva & Marlene SimoesSUI · W 25-29 · AG #19745 | SUI | W 25-29 | 2:01:07 | +67:46 |
| 133287 | #1292 | Breanne Robinson & Kayla CookUSA · W 30-39 · AG #1292 | USA | W 30-39 | 2:01:07 | +67:46 |
| 133288 | #42166 | Nutkrita Chaiyo & Kulthirat KijcharoenolarnTHA · W 30-34 · AG #42166 | THA | W 30-34 | 2:01:07 | +67:46 |
| 133289 | #19746 | Carla Rodrigues & Mariana MartinsPOR · W 25-29 · AG #19746 | POR | W 25-29 | 2:01:07 | +67:46 |
| 133290 | #3099 | Meis Omran & Nora BrooksW 50-54 · AG #3099 | -- | W 50-54 | 2:01:08 | +67:47 |
| 133291 | #508 | Denise Gsponer & Shelley MallinsonCAN · W 55-59 · AG #508 | CAN | W 55-59 | 2:01:08 | +67:47 |
| 133292 | #10936 | Manon Chevalier & Maeline BoutherandFRA · W 16-24 · AG #10936 | FRA | W 16-24 | 2:01:08 | +67:47 |
| 133293 | #19747 | Abigail McDonald & Hannah DistinGBR · W 25-29 · AG #19747 | GBR | W 25-29 | 2:01:08 | +67:47 |
| 133294 | #18989 | Shally Gupta & Manjot KaurIND · W 40-44 · AG #18989 | IND | W 40-44 | 2:01:08 | +67:47 |
| 133295 | #18990 | NORJALINA JAAFAR & NOR HANISHAH MOHD YASOPBRU · W 40-44 · AG #18990 | BRU | W 40-44 | 2:01:08 | +67:47 |
| 133296 | #18991 | Eleanor King & Becky DaviesGBR · W 40-44 · AG #18991 | GBR | W 40-44 | 2:01:08 | +67:47 |
| 133297 | #19748 | Janee Angell & Ashlee StelzerUSA · W 25-29 · AG #19748 | USA | W 25-29 | 2:01:08 | +67:47 |
| 133298 | #19749 | Karla Ortez & Emely OrtezUSA · W 25-29 · AG #19749 | USA | W 25-29 | 2:01:08 | +67:47 |
| 133299 | #18992 | Kelly Thomas & Becca IrelandGBR · W 40-44 · AG #18992 | GBR | W 40-44 | 2:01:09 | +67:48 |
| 133300 | #42167 | Ivette Olivas & Tania MaderosW 30-34 · AG #42167 | -- | W 30-34 | 2:01:09 | +67:48 |
Página 5,332 de 5,500